createdAt,value
2022-10-26T00:00:33.115Z,18.70
2022-10-26T00:03:00.031Z,18.70
2022-10-26T00:05:27.043Z,18.70
2022-10-26T00:07:53.997Z,18.70
2022-10-26T00:10:21.971Z,18.80
2022-10-26T00:12:51.177Z,18.70
2022-10-26T00:15:19.298Z,18.70
2022-10-26T00:17:47.944Z,18.70
2022-10-26T00:20:15.750Z,18.70
2022-10-26T00:22:42.602Z,18.60
2022-10-26T00:25:09.631Z,18.70
2022-10-26T00:27:36.590Z,18.70
2022-10-26T00:30:05.268Z,18.80
2022-10-26T00:32:33.024Z,18.80
2022-10-26T00:35:10.394Z,18.60
2022-10-26T00:37:47.800Z,18.70
2022-10-26T00:40:14.961Z,18.70
2022-10-26T00:42:41.827Z,18.70
2022-10-26T00:45:29.714Z,18.70
2022-10-26T00:48:07.466Z,18.70
2022-10-26T00:50:39.186Z,18.70
2022-10-26T00:53:07.175Z,18.70
2022-10-26T00:55:41.807Z,18.70
2022-10-26T00:58:10.566Z,18.70
2022-10-26T01:00:38.790Z,18.70
2022-10-26T01:03:07.860Z,18.70
2022-10-26T01:05:37.005Z,18.70
2022-10-26T01:08:04.278Z,18.80
2022-10-26T01:10:31.715Z,18.70
2022-10-26T01:12:59.614Z,18.70
2022-10-26T01:16:07.431Z,18.70
2022-10-26T01:18:41.833Z,18.80
2022-10-26T01:21:23.807Z,18.70
2022-10-26T01:23:59.120Z,18.70
2022-10-26T01:26:44.544Z,18.70
2022-10-26T01:29:23.471Z,18.70
2022-10-26T01:32:15.999Z,18.70
2022-10-26T01:35:00.111Z,18.70
2022-10-26T01:37:33.052Z,18.70
2022-10-26T01:40:09.350Z,18.70
2022-10-26T01:42:42.323Z,18.70
2022-10-26T01:45:11.641Z,18.80
2022-10-26T01:47:40.140Z,18.80
2022-10-26T01:50:08.956Z,18.70
2022-10-26T01:52:35.972Z,18.70
2022-10-26T01:55:27.608Z,18.70
2022-10-26T01:58:06.247Z,18.70
2022-10-26T02:00:37.813Z,18.70
2022-10-26T02:03:20.752Z,18.70
2022-10-26T02:05:52.357Z,18.70
2022-10-26T02:08:37.911Z,18.80
2022-10-26T02:11:36.855Z,18.80
2022-10-26T02:16:58.471Z,18.70
2022-10-26T02:19:25.317Z,18.70
2022-10-26T02:22:02.462Z,18.70
2022-10-26T02:24:31.341Z,18.70
2022-10-26T02:27:00.296Z,18.70
2022-10-26T02:29:29.089Z,18.70
2022-10-26T02:31:57.397Z,18.70
2022-10-26T02:34:28.425Z,18.80
2022-10-26T02:36:58.372Z,18.70
2022-10-26T02:39:26.807Z,18.70
2022-10-26T02:41:55.054Z,18.80
2022-10-26T02:44:28.960Z,18.80
2022-10-26T02:46:56.757Z,18.70
2022-10-26T02:49:24.347Z,18.70
2022-10-26T02:52:04.964Z,18.60
2022-10-26T02:54:56.891Z,18.70
2022-10-26T02:57:27.235Z,18.70
2022-10-26T02:59:55.386Z,18.80
2022-10-26T03:02:23.335Z,18.80
2022-10-26T03:04:51.077Z,18.70
2022-10-26T03:07:22.846Z,18.70
2022-10-26T03:09:49.863Z,18.70
2022-10-26T03:12:17.102Z,18.80
2022-10-26T03:14:44.218Z,18.70
2022-10-26T03:17:11.159Z,18.90
2022-10-26T03:19:38.041Z,18.80
2022-10-26T03:22:04.904Z,18.70
2022-10-26T03:24:31.741Z,18.80
2022-10-26T03:27:01.218Z,18.70
2022-10-26T03:29:29.347Z,18.80
2022-10-26T03:31:56.283Z,18.80
2022-10-26T03:34:23.226Z,18.80
2022-10-26T03:36:50.184Z,18.70
2022-10-26T03:39:17.062Z,18.80
2022-10-26T03:41:44.513Z,18.80
2022-10-26T03:44:11.433Z,18.80
2022-10-26T03:46:38.342Z,18.80
2022-10-26T03:49:05.234Z,18.70
2022-10-26T03:51:32.238Z,18.80
2022-10-26T03:53:59.220Z,18.80
2022-10-26T03:56:26.146Z,18.70
2022-10-26T03:58:53.102Z,18.80
2022-10-26T04:01:20.260Z,18.80
2022-10-26T04:03:47.475Z,18.80
2022-10-26T04:06:14.655Z,18.70
2022-10-26T04:08:41.526Z,18.80
2022-10-26T04:11:08.420Z,18.80
2022-10-26T04:13:35.357Z,18.80
2022-10-26T04:16:02.350Z,18.70
2022-10-26T04:18:29.222Z,18.80
2022-10-26T04:20:56.150Z,18.80
2022-10-26T04:23:23.008Z,18.80
2022-10-26T04:25:49.921Z,18.80
2022-10-26T04:28:16.784Z,18.80
2022-10-26T04:30:43.619Z,18.80
2022-10-26T04:33:10.560Z,18.80
2022-10-26T04:35:37.409Z,18.80
2022-10-26T04:38:06.505Z,18.80
2022-10-26T04:40:34.939Z,18.80
2022-10-26T04:43:01.972Z,18.80
2022-10-26T04:45:31.121Z,18.90
2022-10-26T04:48:06.552Z,18.80
2022-10-26T04:50:33.889Z,18.80
2022-10-26T04:53:00.828Z,18.80
2022-10-26T04:55:27.886Z,18.90
2022-10-26T04:57:57.102Z,18.90
2022-10-26T05:00:27.133Z,18.80
2022-10-26T05:03:00.221Z,18.80
2022-10-26T05:05:27.136Z,18.80
2022-10-26T05:07:55.968Z,18.80
2022-10-26T05:10:23.589Z,18.80
2022-10-26T05:12:59.295Z,18.80
2022-10-26T05:15:27.319Z,18.90
2022-10-26T05:18:03.014Z,18.80
2022-10-26T05:20:31.906Z,18.80
2022-10-26T05:23:01.270Z,18.80
2022-10-26T05:25:30.310Z,18.80
2022-10-26T05:28:01.909Z,18.80
2022-10-26T05:30:30.123Z,18.90
2022-10-26T05:33:03.247Z,18.90
2022-10-26T05:35:30.958Z,18.90
2022-10-26T05:37:58.041Z,18.80
2022-10-26T05:40:25.263Z,18.90
2022-10-26T05:42:52.477Z,19.00
2022-10-26T05:45:19.521Z,18.90
2022-10-26T05:47:46.857Z,18.90
2022-10-26T05:50:18.831Z,18.90
2022-10-26T05:52:47.679Z,18.90
2022-10-26T05:55:16.618Z,18.90
2022-10-26T05:57:43.976Z,18.90
2022-10-26T06:00:25.807Z,18.90
2022-10-26T06:03:27.677Z,18.90
2022-10-26T06:06:01.583Z,19.00
2022-10-26T06:08:31.283Z,19.00
2022-10-26T06:11:03.098Z,19.00
2022-10-26T06:13:30.246Z,19.10
2022-10-26T06:16:17.938Z,19.00
2022-10-26T06:18:47.683Z,19.00
2022-10-26T06:21:52.161Z,19.10
2022-10-26T06:24:32.914Z,19.20
2022-10-26T06:27:07.771Z,19.20
2022-10-26T06:29:46.415Z,19.30
2022-10-26T06:32:14.150Z,19.20
2022-10-26T06:34:45.895Z,19.20
2022-10-26T06:37:13.366Z,19.30
2022-10-26T06:39:44.991Z,19.20
2022-10-26T06:42:12.468Z,19.20
2022-10-26T06:44:39.741Z,19.20
2022-10-26T06:47:12.631Z,19.20
2022-10-26T06:49:49.773Z,19.20
2022-10-26T06:52:29.720Z,19.10
2022-10-26T06:54:57.420Z,19.20
2022-10-26T06:57:28.327Z,19.10
2022-10-26T07:00:06.093Z,19.10
2022-10-26T07:02:33.129Z,19.00
2022-10-26T07:05:00.128Z,19.10
2022-10-26T07:07:31.588Z,19.10
2022-10-26T07:09:58.450Z,19.10
2022-10-26T07:12:26.036Z,19.10
2022-10-26T07:14:54.553Z,19.10
2022-10-26T07:17:21.384Z,19.00
2022-10-26T07:19:48.277Z,19.10
2022-10-26T07:22:15.187Z,19.10
2022-10-26T07:24:42.082Z,19.20
2022-10-26T07:27:09.069Z,19.10
2022-10-26T07:29:36.008Z,19.20
2022-10-26T07:32:03.435Z,19.20
2022-10-26T07:34:30.415Z,19.30
2022-10-26T07:37:00.170Z,19.30
2022-10-26T07:39:27.150Z,19.30
2022-10-26T07:41:54.363Z,19.30
2022-10-26T07:44:21.356Z,19.30
2022-10-26T07:46:48.214Z,19.30
2022-10-26T07:49:17.705Z,19.40
2022-10-26T07:51:46.549Z,19.30
2022-10-26T07:54:13.481Z,19.30
2022-10-26T07:56:40.298Z,19.50
2022-10-26T07:59:07.206Z,19.50
2022-10-26T08:01:34.225Z,19.50
2022-10-26T08:04:01.130Z,19.40
2022-10-26T08:06:27.989Z,19.50
2022-10-26T08:08:54.874Z,19.50
2022-10-26T08:11:21.763Z,19.50
2022-10-26T08:13:54.912Z,19.40
2022-10-26T08:16:22.854Z,19.60
2022-10-26T08:18:51.033Z,19.60
2022-10-26T08:21:22.109Z,19.60
2022-10-26T08:23:57.318Z,19.50
2022-10-26T08:26:24.231Z,19.60
2022-10-26T08:28:51.158Z,19.60
2022-10-26T08:31:18.022Z,19.60
2022-10-26T08:33:45.316Z,19.60
2022-10-26T08:36:13.004Z,19.60
2022-10-26T08:38:39.888Z,19.60
2022-10-26T08:41:11.969Z,19.70
2022-10-26T08:43:46.309Z,19.60
2022-10-26T08:46:30.729Z,19.70
2022-10-26T08:49:10.267Z,19.80
2022-10-26T08:51:39.944Z,20.00
2022-10-26T08:54:15.506Z,20.50
2022-10-26T08:56:52.982Z,20.70
2022-10-26T08:59:35.228Z,20.80
2022-10-26T09:02:02.900Z,20.80
2022-10-26T09:04:32.355Z,20.80
2022-10-26T09:07:17.724Z,20.70
2022-10-26T09:10:00.306Z,20.50
2022-10-26T09:12:42.069Z,20.40
2022-10-26T09:15:28.093Z,20.40
2022-10-26T09:18:00.701Z,20.30
2022-10-26T09:20:50.359Z,20.10
2022-10-26T09:23:52.302Z,20.10
2022-10-26T09:26:33.520Z,20.00
2022-10-26T09:29:06.836Z,20.00
2022-10-26T09:31:43.303Z,19.90
2022-10-26T09:34:23.214Z,19.80
2022-10-26T09:36:55.211Z,19.80
2022-10-26T09:39:39.724Z,19.70
2022-10-26T09:42:33.583Z,19.60
2022-10-26T09:45:12.621Z,19.60
2022-10-26T09:47:43.039Z,19.60
2022-10-26T09:50:09.749Z,19.60
2022-10-26T09:52:36.667Z,19.60
2022-10-26T09:55:03.605Z,19.50
2022-10-26T09:57:30.705Z,19.50
2022-10-26T09:59:58.106Z,19.50
2022-10-26T10:02:34.222Z,19.60
2022-10-26T10:05:01.732Z,19.60
2022-10-26T10:07:28.762Z,19.60
2022-10-26T10:10:28.215Z,19.50
2022-10-26T10:12:55.549Z,19.50
2022-10-26T10:15:25.082Z,19.60
2022-10-26T10:17:56.358Z,19.50
2022-10-26T10:20:30.731Z,19.60
2022-10-26T10:22:59.698Z,19.50
2022-10-26T10:25:37.772Z,19.70
2022-10-26T10:28:22.137Z,19.70
2022-10-26T10:30:59.487Z,19.70
2022-10-26T10:33:34.801Z,19.70
2022-10-26T10:36:03.610Z,19.70
2022-10-26T10:38:30.525Z,19.70
2022-10-26T10:40:59.532Z,19.70
2022-10-26T10:43:27.287Z,19.70
2022-10-26T10:45:59.544Z,19.80
2022-10-26T10:48:29.297Z,19.70
2022-10-26T10:50:57.833Z,19.70
2022-10-26T10:53:38.196Z,19.80
2022-10-26T10:56:20.431Z,19.80
2022-10-26T10:59:01.886Z,19.80
2022-10-26T11:01:36.134Z,19.80
2022-10-26T11:04:06.644Z,19.90
2022-10-26T11:06:36.541Z,19.80
2022-10-26T11:09:12.118Z,19.80
2022-10-26T11:11:45.487Z,19.80
2022-10-26T11:14:37.584Z,19.80
2022-10-26T11:17:24.620Z,19.70
2022-10-26T11:20:14.935Z,19.80
2022-10-26T11:22:59.797Z,19.80
2022-10-26T11:25:32.290Z,19.80
2022-10-26T11:28:23.253Z,19.90
2022-10-26T11:30:55.990Z,19.90
2022-10-26T11:33:29.135Z,20.00
2022-10-26T11:36:02.516Z,20.00
2022-10-26T11:38:46.318Z,20.00
2022-10-26T11:41:49.871Z,19.90
2022-10-26T11:44:40.935Z,19.90
2022-10-26T11:47:19.888Z,19.90
2022-10-26T11:49:57.687Z,19.90
2022-10-26T11:52:57.239Z,19.80
2022-10-26T11:55:24.148Z,19.90
2022-10-26T11:57:54.022Z,19.90
2022-10-26T12:00:22.618Z,19.90
2022-10-26T12:03:07.481Z,20.00
2022-10-26T12:05:40.531Z,19.90
2022-10-26T12:08:33.684Z,19.90
2022-10-26T12:11:22.284Z,19.90
2022-10-26T12:14:07.630Z,19.80
2022-10-26T12:16:49.539Z,19.80
2022-10-26T12:19:19.541Z,19.90
2022-10-26T12:21:48.458Z,20.00
2022-10-26T12:24:28.480Z,19.90
2022-10-26T12:26:56.761Z,19.90
2022-10-26T12:29:31.316Z,19.90
2022-10-26T12:31:58.787Z,19.90
2022-10-26T12:34:45.523Z,19.80
2022-10-26T12:37:31.572Z,19.70
2022-10-26T12:40:33.625Z,19.70
2022-10-26T12:43:18.867Z,19.70
2022-10-26T12:45:47.731Z,19.70
2022-10-26T12:48:39.040Z,19.70
2022-10-26T12:51:24.813Z,19.60
2022-10-26T12:53:56.196Z,19.70
2022-10-26T12:56:48.904Z,19.70
2022-10-26T12:59:27.121Z,19.70
2022-10-26T13:02:02.805Z,19.70
2022-10-26T13:04:48.374Z,19.70
2022-10-26T13:07:22.822Z,19.70
2022-10-26T13:10:07.046Z,19.80
2022-10-26T13:12:58.404Z,19.70
2022-10-26T13:15:28.892Z,19.70
2022-10-26T13:17:58.281Z,19.60
2022-10-26T13:20:25.419Z,19.70
2022-10-26T13:22:52.972Z,19.60
2022-10-26T13:25:26.879Z,19.60
2022-10-26T13:28:30.647Z,19.60
2022-10-26T13:30:57.511Z,19.70
2022-10-26T13:33:34.043Z,19.60
2022-10-26T13:36:06.505Z,19.60
2022-10-26T13:38:36.744Z,19.60
2022-10-26T13:41:12.658Z,19.50
2022-10-26T13:43:39.940Z,19.60
2022-10-26T13:46:06.902Z,19.50
2022-10-26T13:48:41.548Z,19.60
2022-10-26T13:51:22.735Z,19.50
2022-10-26T13:54:13.058Z,19.40
2022-10-26T13:57:03.210Z,19.50
2022-10-26T13:59:33.176Z,19.50
2022-10-26T14:02:32.468Z,19.40
2022-10-26T14:05:04.883Z,19.40
2022-10-26T14:07:49.508Z,19.50
2022-10-26T14:10:38.468Z,19.50
2022-10-26T14:13:13.600Z,19.50
2022-10-26T14:15:44.262Z,19.40
2022-10-26T14:18:22.710Z,19.40
2022-10-26T14:21:05.286Z,19.40
2022-10-26T14:23:49.879Z,19.50
2022-10-26T14:26:27.090Z,19.40
2022-10-26T14:28:59.725Z,19.40
2022-10-26T14:31:34.098Z,19.30
2022-10-26T14:34:04.467Z,19.30
2022-10-26T14:36:37.128Z,19.40
2022-10-26T14:39:27.338Z,19.40
2022-10-26T14:41:54.973Z,19.30
2022-10-26T14:44:24.083Z,19.30
2022-10-26T14:46:51.617Z,19.30
2022-10-26T14:49:25.024Z,19.30
2022-10-26T14:51:59.872Z,19.40
2022-10-26T14:54:28.801Z,19.30
2022-10-26T14:56:56.475Z,19.20
2022-10-26T14:59:28.889Z,19.20
2022-10-26T15:02:18.343Z,19.30
2022-10-26T15:05:02.819Z,19.20
2022-10-26T15:07:41.068Z,19.20
2022-10-26T15:10:37.153Z,19.20
2022-10-26T15:13:23.760Z,19.20
2022-10-26T15:15:53.610Z,19.20
2022-10-26T15:18:26.592Z,19.20
2022-10-26T15:20:54.988Z,19.20
2022-10-26T15:23:23.614Z,19.20
2022-10-26T15:26:00.664Z,19.20
2022-10-26T15:28:33.341Z,19.10
2022-10-26T15:31:12.444Z,19.20
2022-10-26T15:33:42.000Z,19.20
2022-10-26T15:36:08.936Z,19.20
2022-10-26T15:38:35.949Z,19.30
2022-10-26T15:41:04.759Z,19.10
2022-10-26T15:43:31.598Z,19.20
2022-10-26T15:45:58.525Z,19.10
2022-10-26T15:48:32.143Z,19.00
2022-10-26T15:50:58.988Z,18.60
2022-10-26T15:53:30.604Z,18.10
2022-10-26T15:55:59.719Z,17.30
2022-10-26T15:58:28.537Z,16.70
2022-10-26T16:00:55.416Z,16.30
2022-10-26T16:03:24.175Z,16.00
2022-10-26T16:05:57.279Z,15.60
2022-10-26T16:08:26.535Z,15.30
2022-10-26T16:10:53.414Z,15.10
2022-10-26T16:13:20.209Z,15.00
2022-10-26T16:15:47.408Z,14.90
2022-10-26T16:18:14.951Z,14.70
2022-10-26T16:20:44.829Z,14.40
2022-10-26T16:23:11.733Z,14.20
2022-10-26T16:25:44.604Z,14.10
2022-10-26T16:28:14.101Z,14.00
2022-10-26T16:33:12.984Z,13.80
2022-10-26T16:35:40.028Z,13.80
2022-10-26T16:38:06.862Z,13.60
2022-10-26T16:40:33.722Z,13.50
2022-10-26T16:43:00.565Z,13.40
2022-10-26T16:45:27.450Z,13.40
2022-10-26T16:47:54.404Z,13.40
2022-10-26T16:50:22.232Z,13.30
2022-10-26T16:52:49.132Z,13.30
2022-10-26T16:55:16.889Z,13.40
2022-10-26T16:57:43.744Z,13.30
2022-10-26T17:00:10.926Z,13.40
2022-10-26T17:02:37.892Z,13.40
2022-10-26T17:05:07.257Z,13.40
2022-10-26T17:07:35.042Z,13.40
2022-10-26T17:10:01.953Z,13.40
2022-10-26T17:12:29.440Z,13.40
2022-10-26T17:14:58.569Z,13.30
2022-10-26T17:17:25.481Z,13.20
2022-10-26T17:19:52.425Z,13.20
2022-10-26T17:22:19.310Z,13.10
2022-10-26T17:24:46.183Z,13.00
2022-10-26T17:27:13.098Z,12.90
2022-10-26T17:29:39.920Z,12.90
2022-10-26T17:32:06.768Z,12.90
2022-10-26T17:34:33.672Z,12.80
2022-10-26T17:37:00.718Z,12.90
2022-10-26T17:39:27.583Z,12.90
2022-10-26T17:41:54.394Z,13.00
2022-10-26T17:44:21.299Z,13.10
2022-10-26T17:46:48.148Z,13.60
2022-10-26T17:49:14.986Z,14.00
2022-10-26T17:51:41.824Z,14.50
2022-10-26T17:54:08.843Z,14.90
2022-10-26T17:56:35.922Z,15.20
2022-10-26T17:59:05.562Z,15.50
2022-10-26T18:01:32.986Z,15.80
2022-10-26T18:04:00.508Z,16.00
2022-10-26T18:06:27.515Z,16.20
2022-10-26T18:08:57.318Z,16.40
2022-10-26T18:11:27.154Z,16.50
2022-10-26T18:13:58.017Z,16.60
2022-10-26T18:16:26.359Z,16.70
2022-10-26T18:19:00.678Z,16.70
2022-10-26T18:21:29.960Z,16.90
2022-10-26T18:23:56.879Z,16.90
2022-10-26T18:26:28.931Z,16.90
2022-10-26T18:28:56.940Z,17.10
2022-10-26T18:31:25.453Z,17.10
2022-10-26T18:33:57.258Z,17.10
2022-10-26T18:36:24.730Z,17.20
2022-10-26T18:38:52.454Z,17.30
2022-10-26T18:41:21.202Z,17.20
2022-10-26T18:43:50.247Z,17.30
2022-10-26T18:46:28.205Z,17.40
2022-10-26T18:48:55.412Z,17.40
2022-10-26T18:51:30.300Z,17.40
2022-10-26T18:53:58.652Z,17.40
2022-10-26T18:56:26.176Z,17.50
2022-10-26T18:58:56.139Z,17.50
2022-10-26T19:01:32.302Z,17.50
2022-10-26T19:04:01.764Z,17.50
2022-10-26T19:06:37.304Z,17.60
2022-10-26T19:09:05.412Z,17.60
2022-10-26T19:11:32.522Z,17.70
2022-10-26T19:13:59.765Z,17.60
2022-10-26T19:16:47.332Z,17.60
2022-10-26T19:19:16.254Z,17.70
2022-10-26T19:21:43.697Z,17.70
2022-10-26T19:24:23.753Z,17.80
2022-10-26T19:26:51.776Z,17.80
2022-10-26T19:29:19.225Z,17.90
2022-10-26T20:20:19.951Z,17.90
2022-10-26T20:22:46.929Z,17.90
2022-10-26T20:25:13.919Z,17.90
2022-10-26T20:27:41.970Z,17.80
2022-10-26T20:30:09.822Z,17.90
2022-10-26T20:32:36.673Z,17.90
2022-10-26T20:35:03.643Z,17.80
2022-10-26T20:37:30.863Z,17.90
2022-10-26T20:39:58.037Z,17.70
2022-10-26T20:42:27.132Z,17.90
2022-10-26T20:45:16.909Z,17.90
2022-10-26T20:47:43.998Z,17.90
2022-10-26T20:50:11.983Z,17.80
2022-10-26T20:52:48.671Z,17.90
2022-10-26T20:55:21.315Z,17.90
2022-10-26T20:57:56.523Z,17.90
2022-10-26T21:00:23.600Z,17.90
2022-10-26T21:02:50.861Z,17.90
2022-10-26T21:05:21.029Z,17.90
2022-10-26T21:07:48.145Z,17.90
2022-10-26T21:10:15.461Z,17.90
2022-10-26T21:12:42.543Z,18.00
2022-10-26T21:15:09.743Z,17.90
2022-10-26T21:17:36.587Z,17.90
2022-10-26T21:20:03.625Z,17.90
2022-10-26T21:22:30.549Z,17.90
2022-10-26T21:24:57.416Z,18.00
2022-10-26T21:27:24.346Z,17.90
2022-10-26T21:29:51.196Z,18.00
2022-10-26T21:32:18.044Z,17.90
2022-10-26T21:34:44.900Z,17.90
2022-10-26T21:37:11.793Z,18.00
2022-10-26T21:39:38.626Z,18.00
2022-10-26T21:42:05.531Z,17.90
2022-10-26T21:44:40.977Z,18.00
2022-10-26T21:47:09.343Z,18.00
2022-10-26T21:49:36.326Z,17.90
2022-10-26T21:52:03.228Z,17.90
2022-10-26T21:54:33.049Z,18.00
2022-10-26T21:56:59.910Z,18.10
2022-10-26T21:59:26.755Z,18.00
2022-10-26T22:01:53.635Z,18.10
2022-10-26T22:04:20.514Z,18.00
2022-10-26T22:06:47.319Z,17.90
2022-10-26T22:09:14.144Z,17.90
2022-10-26T22:11:41.010Z,17.90
2022-10-26T22:14:07.847Z,17.90
2022-10-26T22:16:34.736Z,18.00
2022-10-26T22:19:07.063Z,18.00
2022-10-26T22:21:39.528Z,18.00
2022-10-26T22:24:07.016Z,18.00
2022-10-26T22:26:36.934Z,17.90
2022-10-26T22:29:04.721Z,18.00
2022-10-26T22:31:34.414Z,18.00
2022-10-26T22:34:07.322Z,18.00
2022-10-26T22:36:36.735Z,18.00
2022-10-26T22:39:04.221Z,17.90
2022-10-26T22:41:31.344Z,17.90
2022-10-26T22:43:58.140Z,18.00
2022-10-26T22:46:27.587Z,18.00
2022-10-26T22:48:56.251Z,18.00
2022-10-26T22:51:24.789Z,18.00
2022-10-26T22:53:56.301Z,18.00
2022-10-26T22:56:24.396Z,18.00
2022-10-26T22:58:54.905Z,18.00
2022-10-26T23:01:23.031Z,18.00
2022-10-26T23:03:50.331Z,18.00
2022-10-26T23:06:18.911Z,18.00
2022-10-26T23:08:45.866Z,17.90
2022-10-26T23:11:16.628Z,18.10
2022-10-26T23:13:43.931Z,18.00
2022-10-26T23:16:13.692Z,17.80
2022-10-26T23:18:40.962Z,18.00
2022-10-26T23:21:09.559Z,17.90
2022-10-26T23:23:37.187Z,17.90
2022-10-26T23:26:09.892Z,18.00
2022-10-26T23:28:36.970Z,18.00
2022-10-26T23:31:04.246Z,17.90
2022-10-26T23:33:31.550Z,18.00
2022-10-26T23:35:58.662Z,17.90
2022-10-26T23:38:26.015Z,17.90
2022-10-26T23:40:55.110Z,17.90
2022-10-26T23:43:22.821Z,17.90
2022-10-26T23:45:49.692Z,17.90
2022-10-26T23:48:16.956Z,18.00
2022-10-26T23:50:48.588Z,17.90
2022-10-26T23:53:17.532Z,18.00
2022-10-26T23:55:45.419Z,18.00
2022-10-26T23:58:12.417Z,18.00
